createdAt,value
2023-05-19T00:02:27.491Z,2.22
2023-05-19T00:07:32.643Z,2.65
2023-05-19T00:12:37.524Z,3.08
2023-05-19T00:17:42.597Z,2.35
2023-05-19T00:22:45.135Z,2.30
2023-05-19T00:27:47.093Z,2.60
2023-05-19T00:32:49.261Z,2.85
2023-05-19T00:37:51.220Z,2.60
2023-05-19T00:42:53.393Z,2.50
2023-05-19T00:47:55.312Z,2.45
2023-05-19T00:52:57.417Z,2.42
2023-05-19T00:57:59.769Z,2.63
2023-05-19T01:03:01.887Z,2.47
2023-05-19T01:08:04.189Z,2.70
2023-05-19T01:13:07.164Z,2.72
2023-05-19T01:18:14.372Z,2.70
2023-05-19T01:23:40.278Z,3.20
2023-05-19T01:29:01.122Z,3.17
2023-05-19T01:34:04.918Z,2.67
2023-05-19T01:39:07.398Z,3.22
2023-05-19T01:44:10.240Z,2.53
2023-05-19T01:49:13.696Z,2.75
2023-05-19T01:54:15.574Z,2.53
2023-05-19T01:59:33.826Z,3.03
2023-05-19T02:04:51.695Z,2.20
2023-05-19T02:10:15.293Z,2.92
2023-05-19T02:15:21.569Z,2.83
2023-05-19T02:20:24.020Z,3.10
2023-05-19T02:25:26.057Z,2.80
2023-05-19T02:30:28.047Z,2.80
2023-05-19T02:35:29.980Z,3.72
2023-05-19T02:40:32.061Z,2.83
2023-05-19T02:45:34.184Z,3.10
2023-05-19T02:50:36.453Z,3.05
2023-05-19T02:55:38.350Z,3.22
2023-05-19T03:00:40.423Z,3.58
2023-05-19T03:05:42.785Z,2.95
2023-05-19T03:10:46.277Z,2.88
2023-05-19T03:15:49.027Z,3.83
2023-05-19T03:20:51.341Z,3.55
2023-05-19T03:25:56.553Z,3.03
2023-05-19T03:30:58.575Z,3.03
2023-05-19T03:36:04.695Z,3.53
2023-05-19T03:41:11.026Z,3.00
2023-05-19T03:46:13.116Z,3.55
2023-05-19T03:51:28.733Z,2.70
2023-05-19T03:56:39.669Z,3.53
2023-05-19T04:01:42.886Z,3.10
2023-05-19T04:06:45.728Z,2.88
2023-05-19T04:11:47.766Z,3.35
2023-05-19T04:16:49.708Z,3.00
2023-05-19T04:21:51.908Z,3.20
2023-05-19T04:26:53.954Z,3.67
2023-05-19T04:31:57.348Z,3.58
2023-05-19T04:36:59.579Z,3.55
2023-05-19T04:42:03.004Z,3.28
2023-05-19T04:47:10.462Z,2.90
2023-05-19T04:52:12.674Z,3.67
2023-05-19T04:57:15.613Z,2.95
2023-05-19T05:02:17.736Z,2.70
2023-05-19T05:07:21.674Z,3.38
2023-05-19T05:12:25.772Z,3.45
2023-05-19T05:17:28.435Z,3.70
2023-05-19T05:22:30.785Z,2.85
2023-05-19T05:27:32.894Z,2.72
2023-05-19T05:32:35.020Z,2.28
2023-05-19T05:37:41.658Z,3.25
2023-05-19T05:42:43.766Z,3.72
2023-05-19T05:47:46.747Z,3.10
2023-05-19T05:52:51.084Z,3.38
2023-05-19T05:57:53.518Z,3.28
2023-05-19T06:02:55.881Z,3.17
2023-05-19T06:07:58.067Z,2.97
2023-05-19T06:13:02.191Z,2.95
2023-05-19T06:18:04.431Z,3.42
2023-05-19T06:23:06.375Z,3.20
2023-05-19T06:28:08.350Z,3.33
2023-05-19T06:33:10.419Z,2.83
2023-05-19T06:38:13.079Z,3.65
2023-05-19T06:43:15.238Z,3.55
2023-05-19T06:48:28.701Z,3.67
2023-05-19T06:53:31.446Z,3.22
2023-05-19T06:58:33.788Z,3.38
2023-05-19T07:03:39.272Z,3.22
2023-05-19T07:08:41.346Z,3.22
2023-05-19T07:13:43.725Z,3.28
2023-05-19T07:18:46.396Z,3.03
2023-05-19T07:23:48.439Z,3.58
2023-05-19T07:28:51.991Z,3.25
2023-05-19T07:33:54.893Z,4.97
2023-05-19T07:38:56.954Z,3.60
2023-05-19T07:43:58.980Z,3.50
2023-05-19T07:49:01.021Z,2.92
2023-05-19T07:54:02.949Z,11.57
2023-05-19T07:59:05.012Z,3.42
2023-05-19T08:04:07.690Z,3.38
2023-05-19T08:09:12.082Z,2.95
2023-05-19T08:14:14.023Z,3.45
2023-05-19T08:19:16.031Z,3.35
2023-05-19T08:24:18.037Z,2.75
2023-05-19T08:29:19.929Z,2.22
2023-05-19T08:34:22.402Z,2.17
2023-05-19T08:39:27.165Z,1.90
2023-05-19T08:44:30.972Z,1.83
2023-05-19T08:49:37.092Z,2.10
2023-05-19T08:54:49.137Z,1.92
2023-05-19T08:59:52.360Z,2.05
2023-05-19T09:04:55.972Z,1.90
2023-05-19T09:09:58.012Z,2.08
2023-05-19T09:15:00.378Z,1.58
2023-05-19T09:20:10.957Z,1.90
2023-05-19T09:25:24.069Z,1.65
2023-05-19T09:30:26.235Z,2.05
2023-05-19T09:35:28.224Z,3.03
2023-05-19T09:40:30.140Z,3.17
2023-05-19T09:45:32.224Z,2.22
2023-05-19T09:50:34.483Z,2.25
2023-05-19T09:55:36.412Z,2.65
2023-05-19T10:00:38.941Z,2.40
2023-05-19T10:05:42.156Z,2.42
2023-05-19T10:10:47.303Z,2.63
2023-05-19T10:20:56.160Z,2.58
2023-05-19T10:26:01.907Z,2.38
2023-05-19T10:31:09.242Z,2.53
2023-05-19T10:36:35.752Z,2.25
2023-05-19T10:41:37.590Z,2.47
2023-05-19T10:46:43.256Z,2.92
2023-05-19T10:51:45.634Z,2.05
2023-05-19T10:56:47.673Z,2.30
2023-05-19T11:01:49.729Z,2.50
2023-05-19T11:06:52.322Z,2.03
2023-05-19T11:11:55.180Z,2.10
2023-05-19T11:16:58.440Z,2.60
2023-05-19T11:22:11.559Z,2.78
2023-05-19T11:27:32.896Z,2.30
2023-05-19T11:32:39.192Z,2.35
2023-05-19T11:37:42.795Z,2.20
2023-05-19T11:42:45.405Z,2.00
2023-05-19T11:48:00.866Z,2.42
2023-05-19T11:53:04.339Z,2.03
2023-05-19T11:58:06.991Z,1.95
2023-05-19T12:03:09.839Z,1.98
2023-05-19T12:08:12.553Z,2.13
2023-05-19T12:13:15.033Z,2.58
2023-05-19T12:18:16.925Z,2.50
2023-05-19T12:23:19.118Z,2.33
2023-05-19T12:28:21.256Z,2.30
2023-05-19T12:33:24.452Z,1.95
2023-05-19T12:38:26.476Z,2.17
2023-05-19T12:43:28.410Z,2.78
2023-05-19T12:48:30.395Z,2.78
2023-05-19T12:53:33.357Z,2.60
2023-05-19T12:58:35.313Z,2.78
2023-05-19T13:03:42.321Z,3.05
2023-05-19T13:08:47.362Z,2.83
2023-05-19T13:13:49.335Z,3.90
2023-05-19T13:18:52.062Z,3.13
2023-05-19T13:23:53.978Z,3.25
2023-05-19T13:28:55.886Z,3.22
2023-05-19T13:33:57.806Z,3.00
2023-05-19T13:39:00.866Z,4.30
2023-05-19T13:44:02.750Z,3.13
2023-05-19T13:49:04.614Z,2.97
2023-05-19T13:54:06.490Z,3.33
2023-05-19T13:59:08.634Z,3.28
2023-05-19T14:04:10.824Z,3.10
2023-05-19T14:09:13.339Z,3.17
2023-05-19T14:14:15.290Z,3.17
2023-05-19T14:19:17.608Z,4.50
2023-05-19T14:24:20.308Z,3.65
2023-05-19T14:29:22.425Z,3.67
2023-05-19T14:34:24.289Z,4.30
2023-05-19T14:39:26.337Z,4.72
2023-05-19T14:44:33.162Z,4.60
2023-05-19T14:49:35.032Z,4.53
2023-05-19T14:54:36.979Z,3.97
2023-05-19T14:59:39.493Z,4.82
2023-05-19T15:04:41.361Z,3.47
2023-05-19T15:09:43.330Z,3.55
2023-05-19T15:14:45.241Z,3.35
2023-05-19T15:19:47.601Z,2.95
2023-05-19T15:24:49.527Z,2.80
2023-05-19T15:29:51.404Z,3.20
2023-05-19T15:34:53.327Z,3.20
2023-05-19T15:39:55.186Z,3.22
2023-05-19T15:44:57.106Z,2.70
2023-05-19T15:49:59.016Z,3.05
2023-05-19T15:55:01.052Z,4.05
2023-05-19T16:00:03.254Z,3.83
2023-05-19T16:05:07.295Z,4.45
2023-05-19T16:10:09.585Z,3.67
2023-05-19T16:15:11.635Z,3.60
2023-05-19T16:20:13.548Z,3.90
2023-05-19T16:25:15.750Z,4.20
2023-05-19T16:30:17.771Z,4.88
2023-05-19T16:35:20.621Z,3.78
2023-05-19T16:40:22.553Z,4.72
2023-05-19T16:45:26.302Z,4.13
2023-05-19T16:50:28.251Z,4.38
2023-05-19T16:55:30.095Z,4.20
2023-05-19T17:00:32.360Z,5.05
2023-05-19T17:05:35.733Z,4.95
2023-05-19T17:10:38.719Z,4.53
2023-05-19T17:15:42.364Z,4.75
2023-05-19T17:20:45.476Z,4.88
2023-05-19T17:25:47.924Z,4.60
2023-05-19T17:30:49.835Z,4.82
2023-05-19T17:35:51.724Z,4.45
2023-05-19T17:40:57.628Z,4.18
2023-05-19T17:46:01.057Z,4.05
2023-05-19T17:51:05.847Z,4.10
2023-05-19T17:56:10.230Z,4.65
2023-05-19T18:01:12.333Z,4.07
2023-05-19T18:06:14.766Z,3.60
2023-05-19T18:11:17.912Z,3.67
2023-05-19T18:16:20.757Z,4.18
2023-05-19T18:21:24.774Z,4.35
2023-05-19T18:26:27.496Z,3.63
2023-05-19T18:31:29.421Z,4.68
2023-05-19T18:36:31.763Z,3.85
2023-05-19T18:41:33.831Z,4.32
2023-05-19T18:46:35.823Z,4.20
2023-05-19T18:51:37.840Z,4.97
2023-05-19T18:56:40.793Z,4.30
2023-05-19T19:01:43.347Z,5.03
2023-05-19T19:06:46.033Z,4.85
2023-05-19T19:11:48.070Z,6.68
2023-05-19T19:16:50.127Z,4.38
2023-05-19T19:21:52.186Z,5.28
2023-05-19T19:26:54.173Z,5.10
2023-05-19T19:31:56.666Z,5.13
2023-05-19T19:36:59.018Z,5.13
2023-05-19T19:42:01.342Z,4.88
2023-05-19T19:47:06.598Z,5.65
2023-05-19T19:52:08.499Z,5.18
2023-05-19T19:57:10.815Z,5.40
2023-05-19T20:02:12.990Z,5.22
2023-05-19T20:07:14.973Z,6.38
2023-05-19T20:12:16.843Z,6.30
2023-05-19T20:17:18.732Z,6.55
2023-05-19T20:22:20.779Z,7.65
2023-05-19T20:27:22.652Z,7.30
2023-05-19T20:32:24.573Z,6.00
2023-05-19T20:37:26.497Z,6.60
2023-05-19T20:42:28.402Z,6.32
2023-05-19T20:47:30.701Z,7.00
2023-05-19T20:52:33.121Z,7.32
2023-05-19T20:57:35.005Z,7.20
2023-05-19T21:02:37.017Z,8.05
2023-05-19T21:07:38.952Z,7.50
2023-05-19T21:12:41.011Z,7.63
2023-05-19T21:17:42.989Z,8.32
2023-05-19T21:22:44.894Z,7.97
2023-05-19T21:27:47.618Z,7.63
2023-05-19T21:32:50.022Z,7.45
2023-05-19T21:37:51.921Z,8.65
2023-05-19T21:42:53.796Z,8.27
2023-05-19T21:47:55.962Z,8.38
2023-05-19T21:52:57.824Z,8.52
2023-05-19T21:58:00.960Z,9.13
2023-05-19T22:03:04.578Z,9.15
2023-05-19T22:08:08.147Z,9.13
2023-05-19T22:13:10.089Z,9.52
2023-05-19T22:18:12.382Z,9.32
2023-05-19T22:23:14.642Z,9.95
2023-05-19T22:28:16.685Z,9.77
2023-05-19T22:33:18.597Z,10.73
2023-05-19T22:38:20.620Z,9.50
2023-05-19T22:43:22.467Z,10.07
2023-05-19T22:48:24.490Z,10.68
2023-05-19T22:53:26.378Z,10.07
2023-05-19T22:58:28.377Z,10.02
2023-05-19T23:03:30.243Z,9.73
2023-05-19T23:08:32.133Z,9.50
2023-05-19T23:13:34.121Z,9.43
2023-05-19T23:18:36.249Z,10.18
2023-05-19T23:23:38.244Z,11.48
2023-05-19T23:28:42.070Z,9.77
2023-05-19T23:33:43.965Z,9.80
2023-05-19T23:38:45.878Z,9.90
2023-05-19T23:43:47.791Z,10.57
2023-05-19T23:48:49.716Z,10.93
2023-05-19T23:53:51.620Z,11.02
2023-05-19T23:58:53.935Z,11.30
